createdAt,value
2022-07-27T00:01:00.943Z,101477.22
2022-07-27T00:02:10.477Z,101483.59
2022-07-27T00:03:12.040Z,101480.22
2022-07-27T00:04:14.709Z,101480.91
2022-07-27T00:05:16.408Z,101477.53
2022-07-27T00:06:19.949Z,101482.06
2022-07-27T00:07:21.548Z,101482.22
2022-07-27T00:08:24.126Z,101482.53
2022-07-27T00:09:26.720Z,101483.88
2022-07-27T00:10:28.305Z,101484.03
2022-07-27T00:11:30.902Z,101481.66
2022-07-27T00:12:32.503Z,101476.41
2022-07-27T00:13:35.046Z,101482.78
2022-07-27T00:14:37.588Z,101480.97
2022-07-27T00:15:39.187Z,101474.00
2022-07-27T00:16:41.818Z,101481.41
2022-07-27T00:17:44.763Z,101471.66
2022-07-27T00:18:47.316Z,101478.84
2022-07-27T00:19:48.899Z,101469.28
2022-07-27T00:20:51.532Z,101478.34
2022-07-27T00:21:53.152Z,101476.66
2022-07-27T00:22:55.790Z,101476.97
2022-07-27T00:23:57.507Z,101480.00
2022-07-27T00:25:00.038Z,101473.91
2022-07-27T00:26:01.651Z,101480.13
2022-07-27T00:27:04.441Z,101481.97
2022-07-27T00:28:06.359Z,101483.81
2022-07-27T00:29:09.478Z,101477.63
2022-07-27T00:30:11.600Z,101482.16
2022-07-27T00:31:14.594Z,101486.66
2022-07-27T00:32:16.188Z,101480.31
2022-07-27T00:33:23.335Z,101485.69
2022-07-27T00:34:24.916Z,101479.47
2022-07-27T00:35:27.653Z,101488.38
2022-07-27T00:36:30.225Z,101482.16
2022-07-27T00:37:31.814Z,101481.97
2022-07-27T00:38:34.397Z,101479.28
2022-07-27T00:39:36.014Z,101476.44
2022-07-27T00:40:38.602Z,101483.34
2022-07-27T00:41:40.268Z,101477.84
2022-07-27T00:42:42.835Z,101473.44
2022-07-27T00:43:52.227Z,101478.97
2022-07-27T00:44:55.915Z,101472.59
2022-07-27T00:45:57.629Z,101473.28
2022-07-27T00:47:00.828Z,101478.81
2022-07-27T00:48:02.600Z,101481.50
2022-07-27T00:49:06.722Z,101478.66
2022-07-27T00:50:09.624Z,101481.03
2022-07-27T00:51:12.894Z,101480.88
2022-07-27T00:52:15.180Z,101486.13
2022-07-27T00:53:18.125Z,101477.19
2022-07-27T00:54:20.238Z,101480.03
2022-07-27T00:55:23.057Z,101480.03
2022-07-27T00:56:25.217Z,101487.41
2022-07-27T00:57:28.761Z,101487.41
2022-07-27T00:58:31.392Z,101488.28
2022-07-27T00:59:32.966Z,101480.34
2022-07-27T01:00:35.980Z,101489.09
2022-07-27T01:01:38.017Z,101481.72
2022-07-27T01:02:40.823Z,101488.81
2022-07-27T01:03:48.397Z,101485.09
2022-07-27T01:04:53.558Z,101479.88
2022-07-27T01:06:01.872Z,101481.72
2022-07-27T01:07:05.107Z,101480.03
2022-07-27T01:08:08.396Z,101483.72
2022-07-27T01:09:28.673Z,101481.03
2022-07-27T01:10:31.354Z,101480.34
2022-07-27T01:11:32.970Z,101483.03
2022-07-27T01:12:35.537Z,101482.19
2022-07-27T01:13:37.634Z,101480.34
2022-07-27T01:14:40.833Z,101482.19
2022-07-27T01:15:43.900Z,101480.34
2022-07-27T01:16:46.518Z,101477.66
2022-07-27T01:17:49.893Z,101476.97
2022-07-27T01:18:52.470Z,101478.97
2022-07-27T01:19:55.419Z,101475.75
2022-07-27T01:20:58.946Z,101475.06
2022-07-27T01:22:01.958Z,101477.91
2022-07-27T01:23:04.498Z,101475.53
2022-07-27T01:24:07.584Z,101477.53
2022-07-27T01:25:11.171Z,101472.63
2022-07-27T01:26:12.877Z,101475.47
2022-07-27T01:27:15.421Z,101480.00
2022-07-27T01:28:17.047Z,101478.31
2022-07-27T01:29:19.586Z,101483.69
2022-07-27T01:30:26.949Z,101480.16
2022-07-27T01:31:30.600Z,101475.78
2022-07-27T01:32:32.191Z,101490.22
2022-07-27T01:33:34.773Z,101477.78
2022-07-27T01:34:36.445Z,101479.78
2022-07-27T01:35:40.438Z,101479.78
2022-07-27T01:36:42.096Z,101484.31
2022-07-27T01:37:46.066Z,101484.31
2022-07-27T01:38:50.128Z,101471.06
2022-07-27T01:39:52.666Z,101480.09
2022-07-27T01:40:55.126Z,101467.66
2022-07-27T01:41:58.212Z,101475.03
2022-07-27T01:42:59.811Z,101477.06
2022-07-27T01:44:02.352Z,101479.03
2022-07-27T01:45:04.751Z,101476.66
2022-07-27T01:46:08.041Z,101473.97
2022-07-27T01:47:14.550Z,101473.44
2022-07-27T01:48:17.764Z,101476.28
2022-07-27T01:49:19.479Z,101479.09
2022-07-27T01:50:22.127Z,101467.84
2022-07-27T01:51:24.011Z,101478.75
2022-07-27T01:52:26.552Z,101472.66
2022-07-27T01:53:29.488Z,101471.44
2022-07-27T01:54:32.252Z,101475.28
2022-07-27T01:55:38.505Z,101474.75
2022-07-27T01:56:42.425Z,101470.38
2022-07-27T01:57:44.078Z,101472.38
2022-07-27T01:58:47.092Z,101471.66
2022-07-27T01:59:48.646Z,101474.50
2022-07-27T02:00:51.897Z,101471.97
2022-07-27T02:01:53.591Z,101462.06
2022-07-27T02:02:56.180Z,101463.06
2022-07-27T02:03:57.846Z,101467.63
2022-07-27T02:05:00.533Z,101473.13
2022-07-27T02:06:02.568Z,101470.53
2022-07-27T02:07:05.133Z,101475.09
2022-07-27T02:08:08.114Z,101471.03
2022-07-27T02:09:12.364Z,101473.72
2022-07-27T02:10:14.141Z,101476.53
2022-07-27T02:11:34.240Z,101475.69
2022-07-27T02:12:36.877Z,101474.88
2022-07-27T02:13:38.892Z,101473.31
2022-07-27T02:14:41.453Z,101465.56
2022-07-27T02:15:44.570Z,101464.88
2022-07-27T02:16:47.345Z,101473.06
2022-07-27T02:17:49.767Z,101475.75
2022-07-27T02:18:52.930Z,101471.53
2022-07-27T02:19:54.539Z,101467.16
2022-07-27T02:20:57.090Z,101471.84
2022-07-27T02:21:59.669Z,101475.66
2022-07-27T02:23:02.030Z,101474.97
2022-07-27T02:24:04.985Z,101466.53
2022-07-27T02:25:09.813Z,101469.34
2022-07-27T02:26:12.419Z,101477.56
2022-07-27T02:27:14.012Z,101464.28
2022-07-27T02:28:16.521Z,101470.66
2022-07-27T02:29:19.049Z,101469.94
2022-07-27T02:30:20.641Z,101467.44
2022-07-27T02:31:23.223Z,101464.88
2022-07-27T02:32:25.045Z,101468.59
2022-07-27T02:33:27.680Z,101466.03
2022-07-27T02:34:29.812Z,101474.25
2022-07-27T02:35:32.353Z,101464.50
2022-07-27T02:36:34.022Z,101469.16
2022-07-27T02:37:36.591Z,101468.47
2022-07-27T02:38:38.611Z,101465.66
2022-07-27T02:39:41.215Z,101466.63
2022-07-27T02:40:44.348Z,101470.31
2022-07-27T02:41:47.592Z,101458.91
2022-07-27T02:42:49.211Z,101464.25
2022-07-27T02:43:51.773Z,101462.56
2022-07-27T02:44:53.421Z,101464.69
2022-07-27T02:45:56.070Z,101464.69
2022-07-27T02:46:57.721Z,101462.31
2022-07-27T02:48:00.748Z,101459.63
2022-07-27T02:49:02.405Z,101462.59
2022-07-27T02:50:06.688Z,101460.91
2022-07-27T02:51:08.228Z,101467.28
2022-07-27T02:52:10.824Z,101464.75
2022-07-27T02:53:12.425Z,101463.03
2022-07-27T02:54:14.966Z,101468.56
2022-07-27T02:55:16.557Z,101466.75
2022-07-27T02:56:20.423Z,101466.75
2022-07-27T02:57:28.737Z,101470.41
2022-07-27T02:58:31.300Z,101467.88
2022-07-27T02:59:32.898Z,101468.72
2022-07-27T03:00:35.413Z,101471.38
2022-07-27T03:01:37.987Z,101472.41
2022-07-27T03:02:40.645Z,101472.41
2022-07-27T03:03:42.838Z,101465.34
2022-07-27T03:04:45.424Z,101469.00
2022-07-27T03:05:48.568Z,101462.78
2022-07-27T03:06:51.105Z,101468.16
2022-07-27T03:07:52.668Z,101463.63
2022-07-27T03:08:55.245Z,101461.97
2022-07-27T03:09:56.863Z,101461.81
2022-07-27T03:10:59.425Z,101462.78
2022-07-27T03:12:02.487Z,101468.03
2022-07-27T03:13:05.200Z,101468.16
2022-07-27T03:14:06.914Z,101466.31
2022-07-27T03:15:10.872Z,101476.06
2022-07-27T03:16:12.622Z,101467.34
2022-07-27T03:17:15.240Z,101471.00
2022-07-27T03:18:16.845Z,101469.16
2022-07-27T03:19:19.391Z,101478.06
2022-07-27T03:20:20.968Z,101477.22
2022-07-27T03:21:23.537Z,101473.81
2022-07-27T03:22:25.101Z,101472.28
2022-07-27T03:23:27.684Z,101472.44
2022-07-27T03:24:29.348Z,101465.38
2022-07-27T03:25:32.082Z,101470.88
2022-07-27T03:26:33.728Z,101475.56
2022-07-27T03:27:37.717Z,101476.53
2022-07-27T03:28:39.271Z,101479.22
2022-07-27T03:29:41.792Z,101477.53
2022-07-27T03:30:43.870Z,101475.84
2022-07-27T03:31:47.069Z,101473.47
2022-07-27T03:32:48.802Z,101479.78
2022-07-27T03:33:51.459Z,101476.41
2022-07-27T03:34:53.281Z,101473.00
2022-07-27T03:35:55.801Z,101479.50
2022-07-27T03:36:59.329Z,101478.81
2022-07-27T03:38:01.978Z,101482.66
2022-07-27T03:39:06.292Z,101474.72
2022-07-27T03:40:09.766Z,101469.66
2022-07-27T03:41:12.305Z,101474.19
2022-07-27T03:42:14.869Z,101483.19
2022-07-27T03:43:17.854Z,101486.03
2022-07-27T03:44:20.413Z,101480.97
2022-07-27T03:45:23.134Z,101490.00
2022-07-27T03:46:24.794Z,101488.44
2022-07-27T03:47:27.413Z,101486.75
2022-07-27T03:48:30.003Z,101488.75
2022-07-27T03:49:32.083Z,101491.41
2022-07-27T03:50:34.695Z,101490.84
2022-07-27T03:51:36.299Z,101488.59
2022-07-27T03:52:38.923Z,101488.59
2022-07-27T03:53:40.537Z,101491.28
2022-07-27T03:54:43.094Z,101487.06
2022-07-27T03:55:44.848Z,101486.22
2022-07-27T03:56:47.510Z,101489.19
2022-07-27T03:57:50.746Z,101485.81
2022-07-27T03:58:54.874Z,101489.47
2022-07-27T03:59:56.412Z,101489.63
2022-07-27T04:00:59.081Z,101496.81
2022-07-27T04:02:00.758Z,101496.09
2022-07-27T04:03:03.698Z,101496.09
2022-07-27T04:04:05.326Z,101487.19
2022-07-27T04:05:09.436Z,101497.91
2022-07-27T04:06:11.194Z,101495.41
2022-07-27T04:07:13.753Z,101490.03
2022-07-27T04:08:17.409Z,101498.06
2022-07-27T04:09:19.990Z,101491.75
2022-07-27T04:10:22.975Z,101494.41
2022-07-27T04:11:29.111Z,101498.75
2022-07-27T04:12:31.741Z,101497.09
2022-07-27T04:13:34.395Z,101498.75
2022-07-27T04:14:40.597Z,101499.50
2022-07-27T04:15:43.428Z,101502.16
2022-07-27T04:16:45.088Z,101497.78
2022-07-27T04:17:55.421Z,101502.16
2022-07-27T04:19:00.469Z,101503.00
2022-07-27T04:20:02.057Z,101509.34
2022-07-27T04:21:06.245Z,101507.53
2022-07-27T04:22:08.009Z,101511.19
2022-07-27T04:23:10.581Z,101512.88
2022-07-27T04:24:12.252Z,101509.47
2022-07-27T04:25:14.848Z,101510.31
2022-07-27T04:26:16.454Z,101513.84
2022-07-27T04:27:19.012Z,101516.53
2022-07-27T04:28:20.609Z,101512.88
2022-07-27T04:29:23.680Z,101516.41
2022-07-27T04:30:27.083Z,101519.78
2022-07-27T04:31:29.719Z,101515.28
2022-07-27T04:32:31.337Z,101516.81
2022-07-27T04:33:33.970Z,101514.00
2022-07-27T04:34:35.645Z,101504.97
2022-07-27T04:35:38.269Z,101510.03
2022-07-27T04:36:39.906Z,101518.78
2022-07-27T04:37:59.517Z,101513.44
2022-07-27T04:39:02.497Z,101515.94
2022-07-27T04:40:05.211Z,101515.09
2022-07-27T04:41:07.782Z,101515.09
2022-07-27T04:42:09.882Z,101509.75
2022-07-27T04:43:12.453Z,101515.09
2022-07-27T04:44:14.135Z,101517.78
2022-07-27T04:45:17.072Z,101515.09
2022-07-27T04:46:20.122Z,101509.75
2022-07-27T04:47:23.452Z,101515.25
2022-07-27T04:48:25.095Z,101518.78
2022-07-27T04:49:27.654Z,101521.31
2022-07-27T04:50:29.386Z,101516.81
2022-07-27T04:51:34.617Z,101517.78
2022-07-27T04:52:36.533Z,101516.97
2022-07-27T04:53:53.425Z,101524.16
2022-07-27T04:55:00.140Z,101518.06
2022-07-27T04:56:02.767Z,101519.91
2022-07-27T04:57:04.486Z,101523.44
2022-07-27T04:58:07.460Z,101514.53
2022-07-27T04:59:10.310Z,101515.38
2022-07-27T05:00:12.912Z,101513.72
2022-07-27T05:01:15.802Z,101517.22
2022-07-27T05:02:18.784Z,101521.59
2022-07-27T05:03:21.330Z,101522.44
2022-07-27T05:04:23.008Z,101516.13
2022-07-27T05:05:25.616Z,101515.09
2022-07-27T05:06:27.216Z,101521.31
2022-07-27T05:07:29.768Z,101529.22
2022-07-27T05:08:31.398Z,101524.72
2022-07-27T05:09:34.255Z,101523.00
2022-07-27T05:10:35.826Z,101524.72
2022-07-27T05:11:38.375Z,101527.22
2022-07-27T05:12:39.952Z,101525.53
2022-07-27T05:13:42.659Z,101521.88
2022-07-27T05:14:44.247Z,101527.22
2022-07-27T05:15:55.545Z,101529.06
2022-07-27T05:16:57.526Z,101531.75
2022-07-27T05:18:01.541Z,101529.06
2022-07-27T05:19:03.169Z,101532.59
2022-07-27T05:20:06.510Z,101532.47
2022-07-27T05:21:10.045Z,101525.25
2022-07-27T05:22:11.623Z,101530.34
2022-07-27T05:23:14.203Z,101526.53
2022-07-27T05:24:16.753Z,101533.41
2022-07-27T05:25:21.650Z,101528.47
2022-07-27T05:26:24.282Z,101529.75
2022-07-27T05:27:25.926Z,101528.03
2022-07-27T05:28:28.690Z,101528.59
2022-07-27T05:29:30.329Z,101530.25
2022-07-27T05:30:33.095Z,101531.06
2022-07-27T05:31:35.479Z,101535.53
2022-07-27T05:32:38.053Z,101529.16
2022-07-27T05:33:43.981Z,101532.63
2022-07-27T05:34:50.699Z,101535.09
2022-07-27T05:35:52.324Z,101536.19
2022-07-27T05:36:55.879Z,101538.13
2022-07-27T05:37:57.546Z,101536.72
2022-07-27T05:39:00.146Z,101546.84
2022-07-27T05:40:01.878Z,101546.41
2022-07-27T05:41:04.551Z,101551.16
2022-07-27T05:42:06.414Z,101548.88
2022-07-27T05:43:08.933Z,101547.56
2022-07-27T05:44:10.621Z,101553.47
2022-07-27T05:45:13.702Z,101551.19
2022-07-27T05:46:15.376Z,101551.56
2022-07-27T05:47:18.065Z,101559.00
2022-07-27T05:48:20.834Z,101553.00
2022-07-27T05:49:23.948Z,101554.41
2022-07-27T05:50:26.664Z,101557.63
2022-07-27T05:51:28.345Z,101560.84
2022-07-27T05:52:30.997Z,101550.63
2022-07-27T05:53:32.624Z,101559.06
2022-07-27T05:54:35.254Z,101555.94
2022-07-27T05:55:36.816Z,101556.28
2022-07-27T05:56:39.521Z,101561.38
2022-07-27T05:57:41.201Z,101559.19
2022-07-27T05:58:43.734Z,101568.81
2022-07-27T05:59:45.388Z,101568.53
2022-07-27T06:00:48.029Z,101568.91
2022-07-27T06:01:49.783Z,101556.84
2022-07-27T06:02:52.352Z,101562.75
2022-07-27T06:03:54.089Z,101563.28
2022-07-27T06:04:59.299Z,101564.66
2022-07-27T06:06:19.446Z,101562.50
2022-07-27T06:07:39.822Z,101562.19
2022-07-27T06:08:42.395Z,101563.38
2022-07-27T06:09:43.948Z,101561.06
2022-07-27T06:10:47.011Z,101563.28
2022-07-27T06:11:48.563Z,101567.16
2022-07-27T06:12:51.154Z,101566.84
2022-07-27T06:13:53.740Z,101572.63
2022-07-27T06:14:55.828Z,101571.31
2022-07-27T06:15:58.997Z,101570.13
2022-07-27T06:17:02.642Z,101558.19
2022-07-27T06:18:06.750Z,101567.78
2022-07-27T06:19:08.539Z,101562.94
2022-07-27T06:20:13.724Z,101567.13
2022-07-27T06:21:15.697Z,101564.31
2022-07-27T06:22:19.415Z,101577.59
2022-07-27T06:23:21.117Z,101567.66
2022-07-27T06:24:23.645Z,101569.03
2022-07-27T06:25:34.337Z,101570.44
2022-07-27T06:26:38.574Z,101563.56
2022-07-27T06:27:40.354Z,101569.47
2022-07-27T06:28:42.992Z,101572.81
2022-07-27T06:29:44.611Z,101563.75
2022-07-27T06:30:47.807Z,101571.50
2022-07-27T06:31:49.662Z,101566.81
2022-07-27T06:32:54.325Z,101568.47
2022-07-27T06:34:01.064Z,101565.63
2022-07-27T06:35:04.706Z,101570.84
2022-07-27T06:36:09.657Z,101562.75
2022-07-27T06:37:11.771Z,101567.81
2022-07-27T06:38:14.492Z,101565.81
2022-07-27T06:39:16.268Z,101567.19
2022-07-27T06:40:19.857Z,101567.19
2022-07-27T06:41:22.504Z,101565.88
2022-07-27T06:42:26.022Z,101563.69
2022-07-27T06:43:32.463Z,101564.22
2022-07-27T06:44:34.152Z,101564.88
2022-07-27T06:45:36.721Z,101564.53
2022-07-27T06:46:39.051Z,101565.06
2022-07-27T06:47:49.443Z,101559.19
2022-07-27T06:48:53.062Z,101559.19
2022-07-27T06:49:55.951Z,101556.50
2022-07-27T06:50:58.517Z,101559.88
2022-07-27T06:52:01.590Z,101561.41
2022-07-27T06:53:04.302Z,101562.94
2022-07-27T06:54:06.260Z,101566.16
2022-07-27T06:55:09.437Z,101559.56
2022-07-27T06:56:12.024Z,101562.94
2022-07-27T06:57:13.849Z,101565.63
2022-07-27T06:58:16.762Z,101560.59
2022-07-27T06:59:18.366Z,101565.47
2022-07-27T07:00:20.960Z,101571.03
2022-07-27T07:01:22.813Z,101558.41
2022-07-27T07:02:25.425Z,101560.91
2022-07-27T07:03:27.042Z,101563.59
2022-07-27T07:04:29.610Z,101562.75
2022-07-27T07:05:34.213Z,101561.19
2022-07-27T07:06:40.158Z,101569.66
2022-07-27T07:07:44.069Z,101564.41
2022-07-27T07:08:46.610Z,101569.47
2022-07-27T07:09:48.218Z,101570.34
2022-07-27T07:10:51.432Z,101561.53
2022-07-27T07:11:54.144Z,101566.09
2022-07-27T07:13:03.915Z,101562.56
2022-07-27T07:14:06.925Z,101572.34
2022-07-27T07:15:16.571Z,101572.34
2022-07-27T07:16:19.164Z,101565.75
2022-07-27T07:17:20.763Z,101559.84
2022-07-27T07:18:23.775Z,101574.69
2022-07-27T07:19:25.496Z,101575.19
2022-07-27T07:20:28.002Z,101575.53
2022-07-27T07:21:29.751Z,101576.91
2022-07-27T07:22:34.060Z,101568.13
2022-07-27T07:23:37.967Z,101570.84
2022-07-27T07:24:40.684Z,101576.41
2022-07-27T07:25:43.647Z,101581.66
2022-07-27T07:26:46.254Z,101582.84
2022-07-27T07:27:48.142Z,101574.06
2022-07-27T07:28:50.935Z,101579.13
2022-07-27T07:29:52.684Z,101583.34
2022-07-27T07:30:55.411Z,101590.94
2022-07-27T07:31:57.282Z,101587.56
2022-07-27T07:33:00.010Z,101583.50
2022-07-27T07:34:02.597Z,101589.56
2022-07-27T07:35:05.174Z,101588.38
2022-07-27T07:36:14.170Z,101586.81
2022-07-27T07:37:17.069Z,101581.63
2022-07-27T07:38:19.743Z,101582.28
2022-07-27T07:39:25.573Z,101580.28
2022-07-27T07:40:43.360Z,101577.44
2022-07-27T07:41:46.717Z,101586.53
2022-07-27T07:42:50.320Z,101582.16
2022-07-27T07:43:52.837Z,101584.00
2022-07-27T07:44:54.384Z,101584.97
2022-07-27T07:45:57.464Z,101582.81
2022-07-27T07:46:59.421Z,101573.41
2022-07-27T07:48:02.115Z,101583.50
2022-07-27T07:49:05.064Z,101576.78
2022-07-27T07:50:07.714Z,101579.78
2022-07-27T07:51:10.432Z,101576.59
2022-07-27T07:52:13.045Z,101575.75
2022-07-27T07:53:14.690Z,101578.59
2022-07-27T07:54:17.305Z,101569.66
2022-07-27T07:55:23.660Z,101581.28
2022-07-27T07:56:26.230Z,101577.75
2022-07-27T07:57:28.065Z,101569.66
2022-07-27T07:58:31.282Z,101567.94
2022-07-27T07:59:32.910Z,101568.28
2022-07-27T08:00:35.656Z,101567.59
2022-07-27T08:01:37.475Z,101577.69
2022-07-27T08:02:48.282Z,101574.50
2022-07-27T08:03:52.251Z,101574.31
2022-07-27T08:04:53.884Z,101575.84
2022-07-27T08:05:56.479Z,101576.50
2022-07-27T08:06:59.125Z,101580.03
2022-07-27T08:08:02.766Z,101574.63
2022-07-27T08:09:04.626Z,101578.00
2022-07-27T08:10:08.418Z,101577.47
2022-07-27T08:11:12.281Z,101576.47
2022-07-27T08:12:15.761Z,101580.00
2022-07-27T08:13:22.252Z,101580.50
2022-07-27T08:14:26.352Z,101587.22
2022-07-27T08:15:35.225Z,101589.59
2022-07-27T08:16:37.914Z,101592.13
2022-07-27T08:17:40.830Z,101587.72
2022-07-27T08:18:43.583Z,101595.84
2022-07-27T08:19:45.220Z,101589.59
2022-07-27T08:20:47.817Z,101590.44
2022-07-27T08:21:49.414Z,101594.81
2022-07-27T08:22:52.011Z,101587.06
2022-07-27T08:23:53.619Z,101592.81
2022-07-27T08:25:01.282Z,101588.59
2022-07-27T08:26:07.497Z,101589.78
2022-07-27T08:27:11.956Z,101588.44
2022-07-27T08:28:14.593Z,101585.09
2022-07-27T08:29:17.175Z,101582.91
2022-07-27T08:30:26.282Z,101588.16
2022-07-27T08:31:52.163Z,101587.16
2022-07-27T08:32:52.889Z,101591.59
2022-07-27T08:33:55.511Z,101592.25
2022-07-27T08:34:57.241Z,101595.25
2022-07-27T08:35:59.893Z,101592.41
2022-07-27T08:37:01.600Z,101591.22
2022-07-27T08:38:09.996Z,101588.22
2022-07-27T08:39:41.269Z,101594.28
2022-07-27T08:40:42.969Z,101596.66
2022-07-27T08:41:48.670Z,101596.81
2022-07-27T08:42:52.654Z,101595.13
2022-07-27T08:43:56.463Z,101598.84
2022-07-27T08:44:58.530Z,101596.69
2022-07-27T08:46:02.056Z,101600.03
2022-07-27T08:47:04.501Z,101601.88
2022-07-27T08:48:08.269Z,101593.97
2022-07-27T08:49:10.639Z,101607.13
2022-07-27T08:50:25.432Z,101604.75
2022-07-27T08:51:28.555Z,101603.56
2022-07-27T08:52:31.012Z,101599.50
2022-07-27T08:53:52.047Z,101605.41
2022-07-27T08:54:55.921Z,101605.56
2022-07-27T08:55:58.518Z,101601.53
2022-07-27T08:57:00.700Z,101601.19
2022-07-27T08:58:05.517Z,101596.63
2022-07-27T08:59:11.554Z,101598.94
2022-07-27T09:00:14.340Z,101594.19
2022-07-27T09:01:17.202Z,101600.25
2022-07-27T09:02:21.591Z,101590.78
2022-07-27T09:03:24.702Z,101599.53
2022-07-27T09:04:27.683Z,101593.47
2022-07-27T09:05:37.533Z,101589.09
2022-07-27T09:06:40.769Z,101590.78
2022-07-27T09:07:43.915Z,101593.28
2022-07-27T09:08:59.999Z,101592.63
2022-07-27T09:10:02.818Z,101588.44
2022-07-27T09:11:14.961Z,101590.28
2022-07-27T09:12:17.242Z,101593.16
2022-07-27T09:13:23.495Z,101593.84
2022-07-27T09:14:31.952Z,101597.53
2022-07-27T09:15:34.974Z,101596.53
2022-07-27T09:17:28.594Z,101595.84
2022-07-27T09:18:18.374Z,101588.44
2022-07-27T09:19:22.086Z,101593.84
2022-07-27T09:20:24.965Z,101602.13
2022-07-27T09:21:28.209Z,101601.28
2022-07-27T09:22:46.397Z,101601.28
2022-07-27T09:23:51.796Z,101602.50
2022-07-27T09:25:03.073Z,101597.59
2022-07-27T09:26:29.666Z,101606.03
2022-07-27T09:27:33.611Z,101600.34
2022-07-27T09:28:36.627Z,101600.84
2022-07-27T09:29:39.142Z,101595.94
2022-07-27T09:30:44.471Z,101593.44
2022-07-27T09:31:50.420Z,101598.66
2022-07-27T09:32:58.325Z,101597.63
2022-07-27T09:34:04.877Z,101596.94
2022-07-27T09:35:17.515Z,101597.94
2022-07-27T09:36:23.574Z,101590.66
2022-07-27T09:37:26.288Z,101595.84
2022-07-27T09:38:28.830Z,101591.44
2022-07-27T09:39:30.413Z,101593.44
2022-07-27T09:40:33.059Z,101594.41
2022-07-27T09:41:43.690Z,101588.84
2022-07-27T09:43:08.986Z,101594.06
2022-07-27T09:45:35.387Z,101582.25
2022-07-27T09:46:42.558Z,101575.84
2022-07-27T09:47:44.189Z,101587.50
2022-07-27T09:48:47.082Z,101581.25
2022-07-27T09:49:49.021Z,101585.31
2022-07-27T09:51:03.709Z,101587.50
2022-07-27T09:52:26.775Z,101589.72
2022-07-27T09:53:42.796Z,101590.94
2022-07-27T09:54:47.250Z,101595.19
2022-07-27T09:56:02.273Z,101584.03
2022-07-27T09:57:05.339Z,101590.63
2022-07-27T09:58:07.314Z,101591.47
2022-07-27T09:59:20.179Z,101585.59
2022-07-27T10:00:24.016Z,101587.59
2022-07-27T10:01:30.032Z,101576.63
2022-07-27T10:02:32.009Z,101588.28
2022-07-27T10:03:34.572Z,101582.19
2022-07-27T10:04:37.279Z,101583.41
2022-07-27T10:05:39.096Z,101595.22
2022-07-27T10:07:01.030Z,101594.53
2022-07-27T10:08:04.752Z,101592.03
2022-07-27T10:09:06.548Z,101594.53
2022-07-27T10:10:12.133Z,101596.25
2022-07-27T10:11:15.565Z,101594.53
2022-07-27T10:12:18.094Z,101588.50
2022-07-27T10:13:19.987Z,101594.06
2022-07-27T10:14:24.922Z,101589.50
2022-07-27T10:15:26.832Z,101591.19
2022-07-27T10:16:31.344Z,101592.69
2022-07-27T10:17:35.038Z,101598.75
2022-07-27T10:18:55.375Z,101598.41
2022-07-27T10:19:59.224Z,101602.28
2022-07-27T10:21:08.769Z,101597.03
2022-07-27T10:22:11.347Z,101596.31
2022-07-27T10:23:27.124Z,101601.03
2022-07-27T10:24:33.897Z,101604.88
2022-07-27T10:25:38.056Z,101602.84
2022-07-27T10:26:42.966Z,101600.81
2022-07-27T10:27:47.138Z,101601.81
2022-07-27T10:28:54.515Z,101609.09
2022-07-27T10:29:59.590Z,101604.88
2022-07-27T10:31:15.484Z,101603.88
2022-07-27T10:32:25.300Z,101595.47
2022-07-27T10:33:42.480Z,101601.22
2022-07-27T10:34:45.307Z,101607.50
2022-07-27T10:35:46.879Z,101603.78
2022-07-27T10:36:52.362Z,101606.47
2022-07-27T10:38:07.650Z,101607.50
2022-07-27T10:39:10.782Z,101603.28
2022-07-27T10:40:34.398Z,101608.19
2022-07-27T10:41:39.934Z,101601.44
2022-07-27T10:42:41.946Z,101601.78
2022-07-27T10:43:44.689Z,101604.00
2022-07-27T10:45:03.165Z,101611.44
2022-07-27T10:46:05.780Z,101605.34
2022-07-27T10:47:07.486Z,101601.16
2022-07-27T10:48:41.509Z,101599.44
2022-07-27T10:49:46.099Z,101605.03
2022-07-27T10:50:49.037Z,101606.91
2022-07-27T10:51:53.958Z,101603.50
2022-07-27T10:52:57.697Z,101601.00
2022-07-27T10:54:15.509Z,101603.03
2022-07-27T10:55:44.470Z,101600.00
2022-07-27T10:56:48.644Z,101599.50
2022-07-27T10:57:50.302Z,101600.69
2022-07-27T10:58:52.989Z,101599.19
2022-07-27T11:00:14.968Z,101600.19
2022-07-27T11:01:19.386Z,101600.19
2022-07-27T11:02:38.724Z,101599.00
2022-07-27T11:03:47.264Z,101598.66
2022-07-27T11:04:51.688Z,101589.03
2022-07-27T11:06:01.214Z,101591.88
2022-07-27T11:07:32.092Z,101596.59
2022-07-27T11:08:38.339Z,101591.69
2022-07-27T11:10:03.701Z,101585.94
2022-07-27T11:11:08.391Z,101595.19
2022-07-27T11:12:13.644Z,101591.78
2022-07-27T11:13:17.471Z,101590.06
2022-07-27T11:14:30.441Z,101581.09
2022-07-27T11:15:34.065Z,101581.25
2022-07-27T11:16:54.002Z,101582.22
2022-07-27T11:18:03.378Z,101575.44
2022-07-27T11:19:08.992Z,101577.69
2022-07-27T11:20:12.561Z,101574.81
2022-07-27T11:21:23.789Z,101573.88
2022-07-27T11:24:02.550Z,101565.47
2022-07-27T11:25:05.873Z,101569.31
2022-07-27T11:26:08.613Z,101561.50
2022-07-27T11:27:16.247Z,101557.88
2022-07-27T11:28:27.473Z,101560.19
2022-07-27T11:29:34.979Z,101556.00
2022-07-27T11:30:41.870Z,101559.13
2022-07-27T11:31:55.857Z,101557.31
2022-07-27T11:33:03.883Z,101550.50
2022-07-27T11:34:06.797Z,101549.97
2022-07-27T11:35:19.796Z,101551.28
2022-07-27T11:36:25.012Z,101545.03
2022-07-27T11:37:27.804Z,101544.66
2022-07-27T11:38:30.395Z,101550.72
2022-07-27T11:39:59.359Z,101553.03
2022-07-27T11:41:07.209Z,101550.53
2022-07-27T11:42:21.535Z,101549.41
2022-07-27T11:43:33.648Z,101546.25
2022-07-27T11:44:39.809Z,101551.56
2022-07-27T11:45:42.867Z,101555.34
2022-07-27T11:46:47.425Z,101550.03
2022-07-27T11:47:57.360Z,101541.63
2022-07-27T11:49:08.982Z,101548.63
2022-07-27T11:50:15.500Z,101544.97
2022-07-27T11:51:17.196Z,101549.91
2022-07-27T11:52:19.805Z,101546.72
2022-07-27T11:53:21.618Z,101548.25
2022-07-27T11:54:26.751Z,101552.53
2022-07-27T11:55:28.388Z,101544.31
2022-07-27T11:56:33.486Z,101545.84
2022-07-27T11:57:36.094Z,101542.72
2022-07-27T11:59:12.086Z,101537.81
2022-07-27T12:00:15.486Z,101542.75
2022-07-27T12:01:26.701Z,101541.44
2022-07-27T12:02:29.323Z,101536.59
2022-07-27T12:03:46.023Z,101545.88
2022-07-27T12:04:52.054Z,101533.75
2022-07-27T12:05:58.369Z,101530.19
2022-07-27T12:07:07.659Z,101542.50
2022-07-27T12:08:09.361Z,101536.09
2022-07-27T12:09:16.486Z,101530.97
2022-07-27T12:10:19.257Z,101532.78
2022-07-27T12:11:34.119Z,101537.47
2022-07-27T12:12:38.317Z,101524.69
2022-07-27T12:13:40.195Z,101525.66
2022-07-27T12:14:47.891Z,101528.94
2022-07-27T12:15:56.665Z,101530.59
2022-07-27T12:17:20.977Z,101534.91
2022-07-27T12:18:23.647Z,101529.59
2022-07-27T12:19:25.497Z,101540.88